Home | Races | Search | FAQ | Quotes | Link | Advertise | Split Second | NASTAR  
 

page: 1 2    Link to This RaceResults  
Results by Bib¹
1st run results¹
ASRA OPENER - Single Crs, Combined
USA - vermont - The Beast
12/10/2010 10:30 AM

Over Results¹print

                           SINGLE COURSE RACE  3/8/10                     Page 1 
 
 
Pl Bib Class Team Name Run 1 Run 2 Combined 
________________________________________________________________________________ 
1 97 M TOM F. CHALKER 32.06 (2) 30.18 (1) 1:02.24 (1) 
2 27 M PETER T. DAMORE 31.88 (1) 31.23 (2) 1:03.11 (2) 
3 107 M ROBERT J. LETT 32.17 (3) 31.74 (3) 1:03.91 (3) 
4 17 M MICHAEL J. MISENCI 32.50 (4) 32.23 (7) 1:04.73 (4) 
5 109 M BILL A. MCCOLLOM 33.12 (5) 32.10 (4) 1:05.22 (5) 
6 81 M CHRISTOPHER R. NAT 33.36 (6) 32.37 (8) 1:05.73 (6) 
7 112 M WILLIAM A. BRENNAN 33.65 (8) 32.19 (6) 1:05.84 (7) 
8 67 M PETER L. WILLIAMS 33.82 (9) 32.18 (5) 1:06.00 (8) 
9 72 M BUD HORNER 34.12 (10) 32.59 (9) 1:06.71 (9) 
10 26 M PAUL J. MARYSKO 34.22 (11) 32.85 (10) 1:07.07 (10) 
11 25 M LON R. CARDON 33.58 (7) 33.52 (15) 1:07.10 (11) 
12 57 M ALFRED DAMORE 34.30 (12) 33.19 (12) 1:07.49 (12) 
13 139 F SHARON M. VINSICK 34.34 (13) 33.45 (14) 1:07.79 (13) 
14 30 M JOHN A. LUSSIER 35.02 (14) 33.59 (16) 1:08.61 (14) 
15 11 F MICHELLE WOLOSHIN 35.76 (16) 33.22 (13) 1:08.98 (15) 
16 777 M GEORGE Big Bird V. 36.50 (24) 32.92 (11) 1:09.42 (16) 
17 105 M JASON WESTCOTT 35.63 (15) 34.32 (17) 1:09.95 (17) 
18 76 M BILL SURETTE 36.02 (19) 34.65 (20) 1:10.67 (18) 
19 102 M GREGG GILL 36.27 (22) 34.50 (18) 1:10.77 (19) 
20 6 M RICHARD ZOBER 35.91 (17) 35.16 (22) 1:11.07 (20) 
21 5 M PAUL D. FOWSER 36.11 (20) 35.37 (23) 1:11.48 (21) 
22 21 F Melanie Foy 36.11 (20) 35.52 (25) 1:11.63 (22) 
23 80 M CHARLES MCCUSKER 36.42 (23) 35.88 (28) 1:12.30 (23) 
24 59 M WILLIAM H. BOLTE 36.80 (27) 35.52 (25) 1:12.32 (24) 
25 62 M ALPHONSE J. SEVIGN 36.90 (28) 35.93 (29) 1:12.83 (25) 
26 36 M WALT STUMPF 37.56 (30) 35.38 (24) 1:12.94 (26) 
27 115 M TOM NOLAN 36.74 (25) 36.35 (34) 1:13.09 (27) 
28 58 M THOMAS A. HAUCK 36.78 (26) 36.39 (36) 1:13.17 (28) 
29 77 M LOUIS E. GAEDT 38.30 (35) 35.02 (21) 1:13.32 (29) 
30 4 M MARK NEGROTTO 38.71 (39) 34.62 (19) 1:13.33 (30) 
31 40 F GAIL R. BOLTE 37.25 (29) 36.52 (39) 1:13.77 (31) 
32 13 F SUSAN M. MAXIMUK 38.02 (32) 35.95 (30) 1:13.97 (32) 
33 155 M ED BASSETT 38.62 (37) 35.54 (27) 1:14.16 (33) 
34 71 M JOHN H. KELLER 37.83 (31) 36.37 (35) 1:14.20 (34) 
35 73 M ALEX MACLEAN 38.23 (33) 36.42 (37) 1:14.65 (35) 
36 78 M JIM E. HUCKFELDT 38.53 (36) 36.21 (33) 1:14.74 (36) 
37 51 M ED M. CLAUSEN 38.69 (38) 36.14 (31) 1:14.83 (37) 
38 707 M STEVEN M. ZILLI 38.27 (34) 36.56 (40) 1:14.83 (37) 
39 108 M DAVID W. LIVERMORE 38.73 (40) 36.20 (32) 1:14.93 (39) 
40 101 F TRACY DREHER 39.86 (42) 36.51 (38) 1:16.37 (40) 
41 138 M WILLIAM C. MARKS 35.97 (18) 40.65 (50) 1:16.62 (41) 
42 79 M KEN L. MARTIN 40.45 (43) 36.78 (41) 1:17.23 (42) 
43 3 M CHRIS J. ROMANO 39.27 (41) 39.03 (47) 1:18.30 (43) 
44 22 M WOLFGANG F. BAUER 40.90 (47) 37.49 (43) 1:18.39 (44) 
45 75 F NICOLE VAVRECKA 41.43 (49) 37.02 (42) 1:18.45 (45) 
46 31 M ANDRE BERCLAZ 40.46 (44) 38.00 (44) 1:18.46 (46) 
47 122 M F. JOHN WILKES JR 40.48 (45) 38.53 (46) 1:19.01 (47) 
48 37 M WILLIAM L. CHAMPIO 41.08 (48) 38.41 (45) 1:19.49 (48) 
49 2 M MARK E. DAVID 40.68 (46) 40.27 (49) 1:20.95 (49) 
50 1 F CAROL A. SWEENEY 42.40 (51) 40.90 (51) 1:23.30 (50) 
 
________________________________________________________________________________ 
 
Ski Club Software from www.SplitSecond.com 12/10/10 2:19:11 PM 

page: 1 2             ¹ attached report
Widgets    Upload/View Logos
All results are 'unofficial'     Copyright © 2016 Split Second Sports Timing, Inc., All rights reserved